sensor_id;sensor_type;location;lat;lon;timestamp;pressure;altitude;pressure_sealevel;temperature;humidity
41250;BME280;26984;59.928;30.306;2022-10-16T00:00:35;101556.03;;;11.83;100.00
41250;BME280;26984;59.928;30.306;2022-10-16T00:03:03;101549.44;;;11.85;100.00
41250;BME280;26984;59.928;30.306;2022-10-16T00:05:31;101544.84;;;11.86;100.00
41250;BME280;26984;59.928;30.306;2022-10-16T00:07:58;101542.75;;;11.88;100.00
41250;BME280;26984;59.928;30.306;2022-10-16T00:10:26;101541.25;;;11.79;100.00
41250;BME280;26984;59.928;30.306;2022-10-16T00:12:53;101544.56;;;11.81;100.00
41250;BME280;26984;59.928;30.306;2022-10-16T00:15:20;101540.63;;;11.77;100.00
41250;BME280;26984;59.928;30.306;2022-10-16T00:17:49;101539.78;;;11.76;100.00
41250;BME280;26984;59.928;30.306;2022-10-16T00:20:16;101544.59;;;11.74;100.00
41250;BME280;26984;59.928;30.306;2022-10-16T00:23:02;101542.31;;;11.78;100.00
41250;BME280;26984;59.928;30.306;2022-10-16T00:25:31;101545.19;;;11.76;100.00
41250;BME280;26984;59.928;30.306;2022-10-16T00:27:59;101541.44;;;11.70;100.00
41250;BME280;26984;59.928;30.306;2022-10-16T00:30:27;101541.84;;;11.67;100.00
41250;BME280;26984;59.928;30.306;2022-10-16T00:32:56;101543.50;;;11.68;100.00
41250;BME280;26984;59.928;30.306;2022-10-16T00:35:23;101542.03;;;11.66;100.00
41250;BME280;26984;59.928;30.306;2022-10-16T00:37:51;101539.75;;;11.69;100.00
41250;BME280;26984;59.928;30.306;2022-10-16T00:40:18;101531.66;;;11.69;100.00
41250;BME280;26984;59.928;30.306;2022-10-16T00:42:45;101538.94;;;11.69;100.00
41250;BME280;26984;59.928;30.306;2022-10-16T00:45:13;101531.63;;;11.63;100.00
41250;BME280;26984;59.928;30.306;2022-10-16T00:47:40;101533.31;;;11.64;100.00
41250;BME280;26984;59.928;30.306;2022-10-16T00:50:13;101538.91;;;11.62;100.00
41250;BME280;26984;59.928;30.306;2022-10-16T00:52:43;101538.72;;;11.64;100.00
41250;BME280;26984;59.928;30.306;2022-10-16T00:55:11;101537.66;;;11.58;100.00
41250;BME280;26984;59.928;30.306;2022-10-16T00:57:39;101532.47;;;11.57;100.00
41250;BME280;26984;59.928;30.306;2022-10-16T01:00:07;101530.16;;;11.54;100.00
41250;BME280;26984;59.928;30.306;2022-10-16T01:02:35;101536.00;;;11.57;100.00
41250;BME280;26984;59.928;30.306;2022-10-16T01:05:02;101526.22;;;11.56;100.00
41250;BME280;26984;59.928;30.306;2022-10-16T01:07:34;101529.34;;;11.53;100.00
41250;BME280;26984;59.928;30.306;2022-10-16T01:10:11;101528.69;;;11.51;100.00
41250;BME280;26984;59.928;30.306;2022-10-16T01:12:44;101523.25;;;11.44;100.00
41250;BME280;26984;59.928;30.306;2022-10-16T01:15:14;101528.03;;;11.49;100.00
41250;BME280;26984;59.928;30.306;2022-10-16T01:17:45;101530.31;;;11.39;100.00
41250;BME280;26984;59.928;30.306;2022-10-16T01:20:16;101530.88;;;11.34;100.00
41250;BME280;26984;59.928;30.306;2022-10-16T01:23:04;101529.22;;;11.33;100.00
41250;BME280;26984;59.928;30.306;2022-10-16T01:25:36;101531.69;;;11.28;100.00
41250;BME280;26984;59.928;30.306;2022-10-16T01:28:06;101524.88;;;11.32;100.00
41250;BME280;26984;59.928;30.306;2022-10-16T01:30:37;101535.78;;;11.24;100.00
41250;BME280;26984;59.928;30.306;2022-10-16T01:33:08;101537.88;;;11.22;100.00
41250;BME280;26984;59.928;30.306;2022-10-16T01:35:37;101538.50;;;11.24;100.00
41250;BME280;26984;59.928;30.306;2022-10-16T01:38:07;101541.06;;;11.32;100.00
41250;BME280;26984;59.928;30.306;2022-10-16T01:40:37;101531.09;;;11.33;100.00
41250;BME280;26984;59.928;30.306;2022-10-16T01:43:08;101532.34;;;11.37;100.00
41250;BME280;26984;59.928;30.306;2022-10-16T01:45:37;101536.13;;;11.42;100.00
41250;BME280;26984;59.928;30.306;2022-10-16T01:48:05;101535.69;;;11.39;100.00
41250;BME280;26984;59.928;30.306;2022-10-16T01:50:35;101535.28;;;11.42;100.00
41250;BME280;26984;59.928;30.306;2022-10-16T01:53:04;101528.00;;;11.36;100.00
41250;BME280;26984;59.928;30.306;2022-10-16T01:55:33;101524.22;;;11.30;100.00
41250;BME280;26984;59.928;30.306;2022-10-16T01:58:04;101526.72;;;11.32;100.00
41250;BME280;26984;59.928;30.306;2022-10-16T02:00:34;101527.16;;;11.35;100.00
41250;BME280;26984;59.928;30.306;2022-10-16T02:03:03;101524.66;;;11.34;100.00
41250;BME280;26984;59.928;30.306;2022-10-16T02:05:32;101531.91;;;11.33;100.00
41250;BME280;26984;59.928;30.306;2022-10-16T02:08:01;101526.53;;;11.33;100.00
41250;BME280;26984;59.928;30.306;2022-10-16T02:10:29;101527.31;;;11.27;100.00
41250;BME280;26984;59.928;30.306;2022-10-16T02:12:58;101517.59;;;11.33;100.00
41250;BME280;26984;59.928;30.306;2022-10-16T02:15:26;101520.09;;;11.34;100.00
41250;BME280;26984;59.928;30.306;2022-10-16T02:17:55;101524.22;;;11.30;100.00
41250;BME280;26984;59.928;30.306;2022-10-16T02:20:24;101517.34;;;11.27;100.00
41250;BME280;26984;59.928;30.306;2022-10-16T02:22:52;101521.31;;;11.25;100.00
41250;BME280;26984;59.928;30.306;2022-10-16T02:25:22;101513.78;;;11.20;100.00
41250;BME280;26984;59.928;30.306;2022-10-16T02:27:54;101513.34;;;11.17;100.00
41250;BME280;26984;59.928;30.306;2022-10-16T02:30:25;101519.75;;;11.09;100.00
41250;BME280;26984;59.928;30.306;2022-10-16T02:32:56;101520.56;;;11.10;100.00
41250;BME280;26984;59.928;30.306;2022-10-16T02:35:25;101508.34;;;11.07;100.00
41250;BME280;26984;59.928;30.306;2022-10-16T02:37:54;101507.91;;;11.03;100.00
41250;BME280;26984;59.928;30.306;2022-10-16T02:40:22;101500.44;;;11.06;100.00
41250;BME280;26984;59.928;30.306;2022-10-16T02:42:51;101500.63;;;11.04;100.00
41250;BME280;26984;59.928;30.306;2022-10-16T02:45:19;101505.78;;;10.99;100.00
41250;BME280;26984;59.928;30.306;2022-10-16T02:47:46;101501.81;;;10.95;100.00
41250;BME280;26984;59.928;30.306;2022-10-16T02:50:15;101502.47;;;10.97;100.00
41250;BME280;26984;59.928;30.306;2022-10-16T02:52:43;101498.13;;;11.02;100.00
41250;BME280;26984;59.928;30.306;2022-10-16T02:55:10;101497.56;;;11.07;100.00
41250;BME280;26984;59.928;30.306;2022-10-16T02:57:38;101495.25;;;11.04;100.00
41250;BME280;26984;59.928;30.306;2022-10-16T03:00:06;101492.16;;;11.07;100.00
41250;BME280;26984;59.928;30.306;2022-10-16T03:02:34;101491.31;;;11.07;100.00
41250;BME280;26984;59.928;30.306;2022-10-16T03:05:01;101493.16;;;11.06;100.00
41250;BME280;26984;59.928;30.306;2022-10-16T03:07:30;101488.63;;;11.07;100.00
41250;BME280;26984;59.928;30.306;2022-10-16T03:09:57;101487.81;;;11.13;100.00
41250;BME280;26984;59.928;30.306;2022-10-16T03:12:26;101492.59;;;11.11;100.00
41250;BME280;26984;59.928;30.306;2022-10-16T03:14:53;101489.69;;;11.12;100.00
41250;BME280;26984;59.928;30.306;2022-10-16T03:17:20;101488.22;;;11.10;100.00
41250;BME280;26984;59.928;30.306;2022-10-16T03:19:47;101487.81;;;11.13;100.00
41250;BME280;26984;59.928;30.306;2022-10-16T03:22:15;101488.84;;;11.12;100.00
41250;BME280;26984;59.928;30.306;2022-10-16T03:24:44;101486.16;;;11.12;100.00
41250;BME280;26984;59.928;30.306;2022-10-16T03:27:11;101479.31;;;11.16;100.00
41250;BME280;26984;59.928;30.306;2022-10-16T03:29:38;101478.72;;;11.14;100.00
41250;BME280;26984;59.928;30.306;2022-10-16T03:32:06;101483.09;;;11.21;100.00
41250;BME280;26984;59.928;30.306;2022-10-16T03:34:33;101483.09;;;11.21;100.00
41250;BME280;26984;59.928;30.306;2022-10-16T03:37:00;101477.91;;;11.20;100.00
41250;BME280;26984;59.928;30.306;2022-10-16T03:39:28;101482.06;;;11.22;100.00
41250;BME280;26984;59.928;30.306;2022-10-16T03:41:56;101486.63;;;11.22;100.00
41250;BME280;26984;59.928;30.306;2022-10-16T03:44:24;101486.41;;;11.23;100.00
41250;BME280;26984;59.928;30.306;2022-10-16T03:46:51;101495.75;;;11.21;100.00
41250;BME280;26984;59.928;30.306;2022-10-16T03:49:18;101488.25;;;11.16;100.00
41250;BME280;26984;59.928;30.306;2022-10-16T03:51:46;101475.59;;;11.17;100.00
41250;BME280;26984;59.928;30.306;2022-10-16T03:54:13;101483.25;;;11.13;100.00
41250;BME280;26984;59.928;30.306;2022-10-16T03:56:40;101491.94;;;11.09;100.00
41250;BME280;26984;59.928;30.306;2022-10-16T03:59:09;101480.72;;;11.05;100.00
41250;BME280;26984;59.928;30.306;2022-10-16T04:01:36;101481.72;;;10.97;100.00
41250;BME280;26984;59.928;30.306;2022-10-16T04:04:03;101488.16;;;10.96;100.00
41250;BME280;26984;59.928;30.306;2022-10-16T04:06:31;101482.28;;;10.86;100.00
41250;BME280;26984;59.928;30.306;2022-10-16T04:08:58;101476.06;;;10.86;100.00
41250;BME280;26984;59.928;30.306;2022-10-16T04:11:26;101479.16;;;10.83;100.00
41250;BME280;26984;59.928;30.306;2022-10-16T04:13:53;101474.91;;;10.73;100.00
41250;BME280;26984;59.928;30.306;2022-10-16T04:16:22;101482.00;;;10.74;100.00
41250;BME280;26984;59.928;30.306;2022-10-16T04:18:49;101477.81;;;10.72;100.00
41250;BME280;26984;59.928;30.306;2022-10-16T04:21:17;101476.34;;;10.69;100.00
41250;BME280;26984;59.928;30.306;2022-10-16T04:23:44;101473.88;;;10.68;100.00
41250;BME280;26984;59.928;30.306;2022-10-16T04:26:11;101475.84;;;10.59;100.00
41250;BME280;26984;59.928;30.306;2022-10-16T04:28:39;101468.97;;;10.50;100.00
41250;BME280;26984;59.928;30.306;2022-10-16T04:31:06;101465.19;;;10.44;100.00
41250;BME280;26984;59.928;30.306;2022-10-16T04:33:35;101474.03;;;10.38;100.00
41250;BME280;26984;59.928;30.306;2022-10-16T04:36:03;101466.97;;;10.37;100.00
41250;BME280;26984;59.928;30.306;2022-10-16T04:38:30;101465.88;;;10.31;100.00
41250;BME280;26984;59.928;30.306;2022-10-16T04:40:57;101467.75;;;10.31;100.00
41250;BME280;26984;59.928;30.306;2022-10-16T04:43:25;101456.44;;;10.21;100.00
41250;BME280;26984;59.928;30.306;2022-10-16T04:45:53;101463.31;;;10.23;100.00
41250;BME280;26984;59.928;30.306;2022-10-16T04:48:20;101461.75;;;10.29;100.00
41250;BME280;26984;59.928;30.306;2022-10-16T04:50:49;101456.59;;;10.34;100.00
41250;BME280;26984;59.928;30.306;2022-10-16T04:53:16;101454.56;;;10.36;100.00
41250;BME280;26984;59.928;30.306;2022-10-16T04:55:43;101451.47;;;10.39;100.00
41250;BME280;26984;59.928;30.306;2022-10-16T04:58:11;101438.22;;;10.44;100.00
41250;BME280;26984;59.928;30.306;2022-10-16T05:00:39;101441.38;;;10.48;100.00
41250;BME280;26984;59.928;30.306;2022-10-16T05:03:06;101447.03;;;10.60;100.00
41250;BME280;26984;59.928;30.306;2022-10-16T05:05:34;101447.91;;;10.60;100.00
41250;BME280;26984;59.928;30.306;2022-10-16T05:08:03;101440.59;;;10.54;100.00
41250;BME280;26984;59.928;30.306;2022-10-16T05:10:30;101435.22;;;10.54;100.00
41250;BME280;26984;59.928;30.306;2022-10-16T05:12:58;101437.06;;;10.53;100.00
41250;BME280;26984;59.928;30.306;2022-10-16T05:15:25;101438.06;;;10.52;100.00
41250;BME280;26984;59.928;30.306;2022-10-16T05:17:53;101442.84;;;10.50;100.00
41250;BME280;26984;59.928;30.306;2022-10-16T05:20:20;101443.84;;;10.43;100.00
41250;BME280;26984;59.928;30.306;2022-10-16T05:22:48;101443.25;;;10.47;100.00
41250;BME280;26984;59.928;30.306;2022-10-16T05:25:17;101434.78;;;10.50;100.00
41250;BME280;26984;59.928;30.306;2022-10-16T05:27:46;101445.97;;;10.54;100.00
41250;BME280;26984;59.928;30.306;2022-10-16T05:30:14;101446.22;;;10.59;100.00
41250;BME280;26984;59.928;30.306;2022-10-16T05:32:41;101434.44;;;10.67;100.00
41250;BME280;26984;59.928;30.306;2022-10-16T05:35:12;101429.94;;;10.74;100.00
41250;BME280;26984;59.928;30.306;2022-10-16T05:37:40;101437.22;;;10.80;100.00
41250;BME280;26984;59.928;30.306;2022-10-16T05:40:07;101437.06;;;10.88;100.00
41250;BME280;26984;59.928;30.306;2022-10-16T05:42:37;101431.06;;;10.86;100.00
41250;BME280;26984;59.928;30.306;2022-10-16T05:45:04;101425.06;;;10.91;100.00
41250;BME280;26984;59.928;30.306;2022-10-16T05:47:32;101427.78;;;10.97;100.00
41250;BME280;26984;59.928;30.306;2022-10-16T05:49:59;101420.97;;;11.01;100.00
41250;BME280;26984;59.928;30.306;2022-10-16T05:52:27;101407.31;;;11.03;100.00
41250;BME280;26984;59.928;30.306;2022-10-16T05:54:54;101409.38;;;11.08;100.00
41250;BME280;26984;59.928;30.306;2022-10-16T05:57:21;101405.25;;;11.12;100.00
41250;BME280;26984;59.928;30.306;2022-10-16T05:59:50;101416.03;;;11.12;100.00
41250;BME280;26984;59.928;30.306;2022-10-16T06:02:17;101425.22;;;11.17;100.00
41250;BME280;26984;59.928;30.306;2022-10-16T06:04:45;101420.22;;;11.14;100.00
41250;BME280;26984;59.928;30.306;2022-10-16T06:07:12;101412.59;;;11.24;100.00
41250;BME280;26984;59.928;30.306;2022-10-16T06:09:39;101423.16;;;11.26;100.00
41250;BME280;26984;59.928;30.306;2022-10-16T06:12:07;101423.16;;;11.26;100.00
41250;BME280;26984;59.928;30.306;2022-10-16T06:14:34;101435.81;;;11.25;100.00
41250;BME280;26984;59.928;30.306;2022-10-16T06:17:03;101428.13;;;11.22;100.00
41250;BME280;26984;59.928;30.306;2022-10-16T06:19:30;101429.59;;;11.25;100.00
41250;BME280;26984;59.928;30.306;2022-10-16T06:21:58;101417.53;;;11.27;100.00
41250;BME280;26984;59.928;30.306;2022-10-16T06:24:26;101421.72;;;11.30;100.00
41250;BME280;26984;59.928;30.306;2022-10-16T06:26:53;101423.41;;;11.38;100.00
41250;BME280;26984;59.928;30.306;2022-10-16T06:29:20;101410.75;;;11.45;100.00
41250;BME280;26984;59.928;30.306;2022-10-16T06:31:48;101426.53;;;11.48;100.00
41250;BME280;26984;59.928;30.306;2022-10-16T06:34:16;101410.19;;;11.56;100.00
41250;BME280;26984;59.928;30.306;2022-10-16T06:36:44;101411.03;;;11.63;100.00
41250;BME280;26984;59.928;30.306;2022-10-16T06:39:11;101412.72;;;11.71;100.00
41250;BME280;26984;59.928;30.306;2022-10-16T06:41:38;101411.44;;;11.73;100.00
41250;BME280;26984;59.928;30.306;2022-10-16T06:44:15;101409.38;;;11.75;100.00
41250;BME280;26984;59.928;30.306;2022-10-16T06:46:42;101414.16;;;11.73;100.00
41250;BME280;26984;59.928;30.306;2022-10-16T06:49:09;101404.22;;;11.74;100.00
41250;BME280;26984;59.928;30.306;2022-10-16T06:51:38;101420.19;;;11.75;100.00
41250;BME280;26984;59.928;30.306;2022-10-16T06:54:07;101411.72;;;11.85;100.00
41250;BME280;26984;59.928;30.306;2022-10-16T06:56:35;101411.31;;;11.88;100.00
41250;BME280;26984;59.928;30.306;2022-10-16T06:59:02;101406.53;;;11.84;100.00
41250;BME280;26984;59.928;30.306;2022-10-16T07:01:30;101398.25;;;11.92;100.00
41250;BME280;26984;59.928;30.306;2022-10-16T07:03:57;101393.03;;;11.97;100.00
41250;BME280;26984;59.928;30.306;2022-10-16T07:06:25;101386.59;;;11.98;100.00
41250;BME280;26984;59.928;30.306;2022-10-16T07:08:54;101386.41;;;12.00;100.00
41250;BME280;26984;59.928;30.306;2022-10-16T07:11:22;101390.13;;;11.98;100.00
41250;BME280;26984;59.928;30.306;2022-10-16T07:13:50;101383.25;;;12.09;100.00
41250;BME280;26984;59.928;30.306;2022-10-16T07:16:18;101387.84;;;12.09;100.00
41250;BME280;26984;59.928;30.306;2022-10-16T07:18:46;101390.75;;;12.07;100.00
41250;BME280;26984;59.928;30.306;2022-10-16T07:21:15;101383.25;;;12.09;100.00
41250;BME280;26984;59.928;30.306;2022-10-16T07:23:43;101387.84;;;12.09;100.00
41250;BME280;26984;59.928;30.306;2022-10-16T07:26:12;101379.56;;;12.10;100.00
41250;BME280;26984;59.928;30.306;2022-10-16T07:28:39;101376.63;;;12.12;100.00
41250;BME280;26984;59.928;30.306;2022-10-16T07:31:07;101373.69;;;12.20;100.00
41250;BME280;26984;59.928;30.306;2022-10-16T07:33:37;101385.78;;;12.24;100.00
41250;BME280;26984;59.928;30.306;2022-10-16T07:36:05;101389.50;;;12.30;100.00
41250;BME280;26984;59.928;30.306;2022-10-16T07:38:32;101386.78;;;12.23;100.00
41250;BME280;26984;59.928;30.306;2022-10-16T07:41:00;101389.50;;;12.16;100.00
41250;BME280;26984;59.928;30.306;2022-10-16T07:43:30;101392.84;;;12.25;100.00
41250;BME280;26984;59.928;30.306;2022-10-16T07:45:58;101391.16;;;12.31;100.00
41250;BME280;26984;59.928;30.306;2022-10-16T07:48:26;101392.59;;;12.40;100.00
41250;BME280;26984;59.928;30.306;2022-10-16T07:50:56;101388.66;;;12.56;100.00
41250;BME280;26984;59.928;30.306;2022-10-16T07:53:24;101384.66;;;12.65;100.00
41250;BME280;26984;59.928;30.306;2022-10-16T07:55:51;101380.94;;;12.59;100.00
41250;BME280;26984;59.928;30.306;2022-10-16T07:58:18;101371.97;;;12.59;100.00
41250;BME280;26984;59.928;30.306;2022-10-16T08:00:47;101375.34;;;12.54;100.00
41250;BME280;26984;59.928;30.306;2022-10-16T08:03:15;101370.97;;;12.53;100.00
41250;BME280;26984;59.928;30.306;2022-10-16T08:05:42;101372.44;;;12.42;100.00
41250;BME280;26984;59.928;30.306;2022-10-16T08:08:11;101370.81;;;12.35;100.00
41250;BME280;26984;59.928;30.306;2022-10-16T08:10:40;101366.00;;;12.37;100.00
41250;BME280;26984;59.928;30.306;2022-10-16T08:13:07;101374.34;;;12.29;100.00
41250;BME280;26984;59.928;30.306;2022-10-16T08:15:35;101365.00;;;12.31;100.00
41250;BME280;26984;59.928;30.306;2022-10-16T08:18:04;101370.59;;;12.30;100.00
41250;BME280;26984;59.928;30.306;2022-10-16T08:20:32;101375.97;;;12.36;100.00
41250;BME280;26984;59.928;30.306;2022-10-16T08:22:59;101386.38;;;12.33;100.00
41250;BME280;26984;59.928;30.306;2022-10-16T08:25:27;101382.44;;;12.42;100.00
41250;BME280;26984;59.928;30.306;2022-10-16T08:27:55;101375.34;;;12.34;100.00
41250;BME280;26984;59.928;30.306;2022-10-16T08:30:23;101361.66;;;12.36;100.00
41250;BME280;26984;59.928;30.306;2022-10-16T08:32:50;101373.47;;;12.41;100.00
41250;BME280;26984;59.928;30.306;2022-10-16T08:35:19;101370.56;;;12.43;100.00
41250;BME280;26984;59.928;30.306;2022-10-16T08:37:47;101365.56;;;12.46;100.00
41250;BME280;26984;59.928;30.306;2022-10-16T08:40:16;101362.22;;;12.51;100.00
41250;BME280;26984;59.928;30.306;2022-10-16T08:42:47;101361.16;;;12.65;100.00
41250;BME280;26984;59.928;30.306;2022-10-16T08:45:23;101347.63;;;12.72;100.00
41250;BME280;26984;59.928;30.306;2022-10-16T08:47:56;101345.56;;;12.74;100.00
41250;BME280;26984;59.928;30.306;2022-10-16T08:50:27;101344.28;;;12.77;100.00
41250;BME280;26984;59.928;30.306;2022-10-16T08:52:55;101339.53;;;12.65;100.00
41250;BME280;26984;59.928;30.306;2022-10-16T08:55:28;101347.66;;;12.59;100.00
41250;BME280;26984;59.928;30.306;2022-10-16T08:57:56;101351.00;;;12.54;100.00
41250;BME280;26984;59.928;30.306;2022-10-16T09:00:24;101344.16;;;12.45;100.00
41250;BME280;26984;59.928;30.306;2022-10-16T09:02:52;101344.13;;;12.52;100.00
41250;BME280;26984;59.928;30.306;2022-10-16T09:05:22;101347.47;;;12.54;100.00
41250;BME280;26984;59.928;30.306;2022-10-16T09:07:55;101343.72;;;12.48;100.00
41250;BME280;26984;59.928;30.306;2022-10-16T09:10:30;101333.75;;;12.49;100.00
41250;BME280;26984;59.928;30.306;2022-10-16T09:13:02;101329.59;;;12.53;100.00
41250;BME280;26984;59.928;30.306;2022-10-16T09:15:36;101343.94;;;12.53;100.00
41250;BME280;26984;59.928;30.306;2022-10-16T09:18:09;101331.25;;;12.54;100.00
41250;BME280;26984;59.928;30.306;2022-10-16T09:20:42;101338.97;;;12.50;100.00
41250;BME280;26984;59.928;30.306;2022-10-16T09:23:17;101340.00;;;12.56;100.00
41250;BME280;26984;59.928;30.306;2022-10-16T09:25:45;101331.00;;;12.68;100.00
41250;BME280;26984;59.928;30.306;2022-10-16T09:28:15;101331.16;;;12.80;100.00
41250;BME280;26984;59.928;30.306;2022-10-16T09:30:42;101320.78;;;12.77;100.00
41250;BME280;26984;59.928;30.306;2022-10-16T09:33:10;101337.44;;;12.74;100.00
41250;BME280;26984;59.928;30.306;2022-10-16T09:35:39;101326.25;;;12.64;100.00
41250;BME280;26984;59.928;30.306;2022-10-16T09:38:07;101343.03;;;12.73;100.00
41250;BME280;26984;59.928;30.306;2022-10-16T09:40:38;101336.00;;;12.72;100.00
41250;BME280;26984;59.928;30.306;2022-10-16T09:43:11;101336.22;;;12.63;100.00
41250;BME280;26984;59.928;30.306;2022-10-16T09:45:41;101328.53;;;12.67;100.00
41250;BME280;26984;59.928;30.306;2022-10-16T09:48:10;101322.47;;;12.72;100.00
41250;BME280;26984;59.928;30.306;2022-10-16T09:50:38;101323.50;;;12.77;100.00
41250;BME280;26984;59.928;30.306;2022-10-16T09:53:08;101325.16;;;12.78;100.00
41250;BME280;26984;59.928;30.306;2022-10-16T09:55:48;101321.19;;;12.81;100.00
41250;BME280;26984;59.928;30.306;2022-10-16T09:58:17;101312.84;;;12.82;100.00
41250;BME280;26984;59.928;30.306;2022-10-16T10:00:48;101308.69;;;12.86;100.00
41250;BME280;26984;59.928;30.306;2022-10-16T10:03:20;101306.63;;;12.82;100.00
41250;BME280;26984;59.928;30.306;2022-10-16T10:05:57;101321.16;;;12.87;100.00
41250;BME280;26984;59.928;30.306;2022-10-16T10:08:25;101341.38;;;12.78;100.00
41250;BME280;26984;59.928;30.306;2022-10-16T10:10:54;101347.19;;;12.75;100.00
41250;BME280;26984;59.928;30.306;2022-10-16T10:13:22;101346.00;;;12.64;100.00
41250;BME280;26984;59.928;30.306;2022-10-16T10:15:51;101345.41;;;12.56;100.00
41250;BME280;26984;59.928;30.306;2022-10-16T10:18:20;101346.44;;;12.55;100.00
41250;BME280;26984;59.928;30.306;2022-10-16T10:20:57;101344.38;;;12.50;100.00
41250;BME280;26984;59.928;30.306;2022-10-16T10:23:25;101344.78;;;12.40;100.00
41250;BME280;26984;59.928;30.306;2022-10-16T10:25:55;101345.44;;;12.42;100.00
41250;BME280;26984;59.928;30.306;2022-10-16T10:28:33;101336.50;;;12.42;100.00
41250;BME280;26984;59.928;30.306;2022-10-16T10:31:06;101344.56;;;12.49;100.00
41250;BME280;26984;59.928;30.306;2022-10-16T10:33:40;101345.84;;;12.39;100.00
41250;BME280;26984;59.928;30.306;2022-10-16T10:36:12;101348.53;;;12.39;100.00
41250;BME280;26984;59.928;30.306;2022-10-16T10:38:46;101343.97;;;12.40;100.00
41250;BME280;26984;59.928;30.306;2022-10-16T10:41:32;101346.91;;;12.38;100.00
41250;BME280;26984;59.928;30.306;2022-10-16T10:44:06;101345.44;;;12.36;100.00
41250;BME280;26984;59.928;30.306;2022-10-16T10:46:39;101338.16;;;12.30;100.00
41250;BME280;26984;59.928;30.306;2022-10-16T10:51:55;101336.28;;;12.23;100.00
41250;BME280;26984;59.928;30.306;2022-10-16T10:54:27;101337.16;;;12.17;100.00
41250;BME280;26984;59.928;30.306;2022-10-16T10:57:02;101344.44;;;12.17;100.00
41250;BME280;26984;59.928;30.306;2022-10-16T11:02:33;101336.94;;;12.19;100.00
41250;BME280;26984;59.928;30.306;2022-10-16T11:05:10;101339.44;;;12.14;100.00
41250;BME280;26984;59.928;30.306;2022-10-16T11:07:43;101336.94;;;12.12;100.00
41250;BME280;26984;59.928;30.306;2022-10-16T11:10:15;101339.03;;;12.17;100.00
41250;BME280;26984;59.928;30.306;2022-10-16T11:12:47;101329.25;;;12.16;100.00
41250;BME280;26984;59.928;30.306;2022-10-16T11:15:17;101330.09;;;12.10;100.00
41250;BME280;26984;59.928;30.306;2022-10-16T11:17:47;101311.81;;;11.98;100.00
41250;BME280;26984;59.928;30.306;2022-10-16T11:20:18;101313.50;;;12.06;100.00
41250;BME280;26984;59.928;30.306;2022-10-16T11:22:47;101311.19;;;12.03;100.00
41250;BME280;26984;59.928;30.306;2022-10-16T11:25:18;101320.75;;;11.99;100.00
41250;BME280;26984;59.928;30.306;2022-10-16T11:27:50;101324.91;;;12.02;100.00
41250;BME280;26984;59.928;30.306;2022-10-16T11:30:20;101323.25;;;12.01;100.00
41250;BME280;26984;59.928;30.306;2022-10-16T11:32:56;101333.00;;;12.02;100.00
41250;BME280;26984;59.928;30.306;2022-10-16T11:35:30;101323.66;;;11.91;100.00
41250;BME280;26984;59.928;30.306;2022-10-16T11:37:59;101326.94;;;11.80;100.00
41250;BME280;26984;59.928;30.306;2022-10-16T11:40:31;101329.84;;;11.65;100.00
41250;BME280;26984;59.928;30.306;2022-10-16T11:43:02;101339.41;;;11.54;100.00
41250;BME280;26984;59.928;30.306;2022-10-16T11:45:33;101333.56;;;11.44;100.00
41250;BME280;26984;59.928;30.306;2022-10-16T11:48:05;101331.47;;;11.33;100.00
41250;BME280;26984;59.928;30.306;2022-10-16T11:50:37;101342.88;;;11.35;100.00
41250;BME280;26984;59.928;30.306;2022-10-16T11:53:09;101331.47;;;11.39;100.00
41250;BME280;26984;59.928;30.306;2022-10-16T11:55:41;101331.25;;;11.34;100.00
41250;BME280;26984;59.928;30.306;2022-10-16T11:58:13;101330.66;;;11.39;100.00
41250;BME280;26984;59.928;30.306;2022-10-16T12:00:44;101330.44;;;11.40;100.00
41250;BME280;26984;59.928;30.306;2022-10-16T12:03:17;101322.13;;;11.29;100.00
41250;BME280;26984;59.928;30.306;2022-10-16T12:06:02;101324.59;;;11.30;100.00
41250;BME280;26984;59.928;30.306;2022-10-16T12:08:33;101322.72;;;11.24;100.00
41250;BME280;26984;59.928;30.306;2022-10-16T12:11:09;101325.00;;;11.27;100.00
41250;BME280;26984;59.928;30.306;2022-10-16T12:13:39;101321.88;;;11.23;100.00
41250;BME280;26984;59.928;30.306;2022-10-16T12:16:07;101328.75;;;11.26;100.00
41250;BME280;26984;59.928;30.306;2022-10-16T12:18:46;101323.16;;;11.21;100.00
41250;BME280;26984;59.928;30.306;2022-10-16T12:21:15;101322.94;;;11.22;100.00
41250;BME280;26984;59.928;30.306;2022-10-16T12:23:48;101322.31;;;11.27;100.00
41250;BME280;26984;59.928;30.306;2022-10-16T12:26:23;101324.00;;;11.28;100.00
41250;BME280;26984;59.928;30.306;2022-10-16T12:28:52;101321.09;;;11.30;100.00
41250;BME280;26984;59.928;30.306;2022-10-16T12:31:20;101314.47;;;11.39;100.00
41250;BME280;26984;59.928;30.306;2022-10-16T12:33:54;101303.06;;;11.43;100.00
41250;BME280;26984;59.928;30.306;2022-10-16T12:36:26;101317.78;;;11.41;100.00
41250;BME280;26984;59.928;30.306;2022-10-16T12:38:54;101299.72;;;11.41;100.00
41250;BME280;26984;59.928;30.306;2022-10-16T12:41:25;101291.63;;;11.41;100.00
41250;BME280;26984;59.928;30.306;2022-10-16T12:43:55;101289.97;;;11.47;100.00
41250;BME280;26984;59.928;30.306;2022-10-16T12:46:24;101299.31;;;11.51;100.00